createdAt,value
2018-12-18T17:36:47.841Z,4.57
2018-12-18T17:37:49.248Z,4.54
2018-12-18T17:38:50.638Z,4.50
2018-12-18T17:39:52.022Z,4.49
2018-12-18T17:40:53.425Z,4.47
2018-12-18T17:41:54.820Z,4.54
2018-12-18T17:42:56.206Z,4.54
2018-12-18T17:43:57.593Z,4.57
2018-12-18T17:44:59.002Z,4.47
2018-12-18T17:46:00.410Z,4.51
2018-12-18T17:47:01.808Z,4.47
2018-12-18T17:48:03.214Z,4.53
2018-12-18T17:49:04.636Z,4.51
2018-12-18T17:50:06.058Z,4.44
2018-12-18T17:51:07.467Z,4.49
2018-12-18T17:52:09.770Z,4.54
2018-12-18T17:53:11.167Z,4.49
2018-12-18T17:54:12.579Z,4.53
2018-12-18T17:55:14.008Z,4.50
2018-12-18T17:56:15.410Z,4.53
2018-12-18T17:57:16.808Z,4.51
2018-12-18T17:58:18.215Z,4.56
2018-12-18T17:59:19.607Z,4.57
2018-12-18T18:00:21.015Z,4.51
2018-12-18T18:01:22.409Z,4.51
2018-12-18T18:02:23.801Z,4.51
2018-12-18T18:03:25.205Z,4.51
2018-12-18T18:04:26.623Z,4.53
2018-12-18T18:05:28.021Z,4.56
2018-12-18T18:06:29.411Z,4.62
2018-12-18T18:07:30.845Z,4.53
2018-12-18T18:08:32.248Z,4.49
2018-12-18T18:09:33.642Z,4.53
2018-12-18T18:10:35.044Z,4.53
2018-12-18T18:11:36.452Z,4.49
2018-12-18T18:12:37.865Z,4.53
2018-12-18T18:13:39.262Z,4.56
2018-12-18T18:14:40.667Z,4.49
2018-12-18T18:15:42.079Z,4.53
2018-12-18T18:16:43.470Z,4.53
2018-12-18T18:17:44.877Z,4.59
2018-12-18T18:18:46.279Z,4.46
2018-12-18T18:19:47.710Z,4.46
2018-12-18T18:20:49.107Z,4.47
2018-12-18T18:21:50.504Z,4.36
2018-12-18T18:22:51.919Z,4.43
2018-12-18T18:23:53.333Z,4.39
2018-12-18T18:24:54.727Z,4.46
2018-12-18T18:25:56.129Z,4.38
2018-12-18T18:26:57.533Z,4.28
2018-12-18T18:27:58.918Z,4.34
2018-12-18T18:29:00.322Z,4.34
2018-12-18T18:30:01.713Z,4.28
2018-12-18T18:31:03.144Z,4.29
2018-12-18T18:32:04.545Z,4.24
2018-12-18T18:33:05.955Z,4.25
2018-12-18T18:34:07.356Z,4.25
2018-12-18T18:35:08.780Z,4.13
2018-12-18T18:36:10.162Z,4.10
2018-12-18T18:37:11.602Z,4.11
2018-12-18T18:38:13.008Z,4.14
2018-12-18T18:39:15.292Z,4.10
2018-12-18T18:40:15.750Z,4.13
2018-12-18T18:41:17.138Z,4.17
2018-12-18T18:42:18.534Z,4.17
2018-12-18T18:43:19.929Z,4.13
2018-12-18T18:44:21.330Z,4.16
2018-12-18T18:45:22.726Z,4.13
2018-12-18T18:46:24.140Z,4.11
2018-12-18T18:47:25.537Z,4.17
2018-12-18T18:48:26.941Z,4.16
2018-12-18T18:49:28.345Z,4.08
2018-12-18T18:50:29.756Z,4.10
2018-12-18T18:51:31.145Z,4.08
2018-12-18T18:52:32.548Z,4.06
2018-12-18T18:53:33.948Z,4.14
2018-12-18T18:54:35.339Z,4.14
2018-12-18T18:55:36.741Z,4.11
2018-12-18T18:56:38.150Z,4.07
2018-12-18T18:57:39.549Z,4.11
2018-12-18T18:58:40.943Z,4.10
2018-12-18T18:59:42.352Z,4.04
2018-12-18T19:00:43.759Z,4.07
2018-12-18T19:01:45.173Z,4.04
2018-12-18T19:02:46.570Z,4.02
2018-12-18T19:03:47.964Z,4.10
2018-12-18T19:04:49.356Z,3.98
2018-12-18T19:05:50.765Z,3.98
2018-12-18T19:06:52.180Z,4.00
2018-12-18T19:07:56.487Z,3.90
2018-12-18T19:08:54.941Z,3.98
2018-12-18T19:09:56.352Z,3.90
2018-12-18T19:10:57.767Z,3.92
2018-12-18T19:11:59.173Z,3.98
2018-12-18T19:13:00.578Z,3.93
2018-12-18T19:14:02.732Z,3.95
2018-12-18T19:15:04.144Z,3.93
2018-12-18T19:16:05.578Z,3.92
2018-12-18T19:17:06.998Z,3.92
2018-12-18T19:18:08.913Z,3.98
2018-12-18T19:19:10.329Z,3.92
2018-12-18T19:20:11.739Z,3.98
2018-12-18T19:21:13.119Z,3.93
2018-12-18T19:22:14.513Z,3.99
2018-12-18T19:23:15.887Z,3.92
2018-12-18T19:24:17.271Z,3.93
2018-12-18T19:25:18.658Z,3.98
2018-12-18T19:26:20.034Z,3.96
2018-12-18T19:27:21.433Z,3.98
2018-12-18T19:28:22.812Z,3.95
2018-12-18T19:29:24.199Z,4.06
2018-12-18T19:30:25.582Z,3.95
2018-12-18T19:31:26.975Z,4.08
2018-12-18T19:32:28.360Z,3.98
2018-12-18T19:33:29.737Z,3.98
2018-12-18T19:34:32.919Z,4.04
2018-12-18T19:35:34.306Z,4.02
2018-12-18T19:36:37.187Z,4.00
2018-12-18T19:37:38.575Z,4.02
2018-12-18T19:38:39.958Z,4.04
2018-12-18T19:39:41.357Z,4.08
2018-12-18T19:40:42.763Z,4.02
2018-12-18T19:41:44.183Z,3.99
2018-12-18T19:42:45.581Z,4.06
2018-12-18T19:43:46.989Z,4.07
2018-12-18T19:44:48.362Z,4.07
2018-12-18T19:45:49.761Z,4.06
2018-12-18T19:46:51.159Z,4.07
2018-12-18T19:47:52.573Z,4.00
2018-12-18T19:48:53.976Z,4.04
2018-12-18T19:49:55.359Z,4.06
2018-12-18T19:50:56.749Z,4.07
2018-12-18T19:51:58.149Z,4.06
2018-12-18T19:53:00.415Z,4.07
2018-12-18T19:54:01.791Z,4.02
2018-12-18T19:55:03.186Z,4.11
2018-12-18T19:56:05.458Z,4.11
2018-12-18T19:57:06.838Z,4.04
2018-12-18T19:58:08.257Z,4.04
2018-12-18T19:59:10.876Z,4.08
2018-12-18T20:00:10.986Z,4.07
2018-12-18T20:01:12.381Z,4.07
2018-12-18T20:02:13.760Z,4.06
2018-12-18T20:03:15.963Z,4.06
2018-12-18T20:04:17.342Z,4.07
2018-12-18T20:05:18.734Z,4.06
2018-12-18T20:06:21.040Z,4.06
2018-12-18T20:07:21.446Z,4.04
2018-12-18T20:08:22.847Z,4.06
2018-12-18T20:09:24.222Z,4.06
2018-12-18T20:10:25.616Z,4.07
2018-12-18T20:11:27.027Z,4.07
2018-12-18T20:12:28.412Z,4.04
2018-12-18T20:13:29.823Z,3.98
2018-12-18T20:14:31.221Z,4.04
2018-12-18T20:15:32.631Z,4.06
2018-12-18T20:16:34.041Z,4.07
2018-12-18T20:17:35.445Z,4.04
2018-12-18T20:18:36.832Z,4.02
2018-12-18T20:19:39.180Z,4.00
2018-12-18T20:20:40.554Z,4.00
2018-12-18T20:21:41.935Z,4.07
2018-12-18T20:22:43.347Z,4.04
2018-12-18T20:23:44.743Z,4.02
2018-12-18T20:24:46.966Z,4.00
2018-12-18T20:25:48.376Z,3.90
2018-12-18T20:26:49.765Z,3.93
2018-12-18T20:27:51.159Z,3.93
2018-12-18T20:28:52.586Z,3.89
2018-12-18T20:29:54.762Z,3.95
2018-12-18T20:30:56.144Z,3.84
2018-12-18T20:31:57.544Z,3.89
2018-12-18T20:32:58.933Z,3.96
2018-12-18T20:34:01.804Z,3.92
2018-12-18T20:35:03.208Z,3.88
2018-12-18T20:36:04.604Z,3.92
2018-12-18T20:37:05.986Z,3.88
2018-12-18T20:38:07.370Z,3.81
2018-12-18T20:39:08.747Z,3.86
2018-12-18T20:40:10.123Z,3.86
2018-12-18T20:41:12.803Z,3.88
2018-12-18T20:42:16.336Z,3.90
2018-12-18T20:43:20.042Z,3.86
2018-12-18T20:44:24.439Z,3.86
2018-12-18T20:45:29.284Z,3.80
2018-12-18T20:46:32.731Z,3.80
2018-12-18T20:47:34.148Z,3.81
2018-12-18T20:48:35.529Z,3.77
2018-12-18T20:49:41.123Z,3.75
2018-12-18T20:50:45.525Z,3.78
2018-12-18T20:51:48.850Z,3.78
2018-12-18T20:52:52.913Z,3.81
2018-12-18T20:53:54.311Z,3.78
2018-12-18T20:54:57.459Z,3.60
2018-12-18T20:56:01.613Z,3.75
2018-12-18T20:57:04.737Z,3.77
2018-12-18T20:58:09.651Z,3.77
2018-12-18T20:59:13.342Z,3.75
2018-12-18T21:00:17.467Z,3.80
2018-12-18T21:01:24.090Z,3.72
2018-12-18T21:02:28.967Z,3.71
2018-12-18T21:03:33.122Z,3.74
2018-12-18T21:04:37.952Z,3.72
2018-12-18T21:05:44.095Z,3.72
2018-12-18T21:06:45.671Z,3.67
2018-12-18T21:07:49.638Z,3.64
2018-12-18T21:08:53.767Z,3.74
2018-12-18T21:09:58.480Z,3.67
2018-12-18T21:11:03.859Z,3.62
2018-12-18T21:12:05.543Z,3.67
2018-12-18T21:13:10.496Z,3.63
2018-12-18T21:14:16.293Z,3.63
2018-12-18T21:15:20.994Z,3.59
2018-12-18T21:16:25.546Z,3.60
2018-12-18T21:17:28.946Z,3.57
2018-12-18T21:18:32.396Z,3.59
2018-12-18T21:19:38.954Z,3.59
2018-12-18T21:20:43.107Z,3.56
2018-12-18T21:21:44.486Z,3.54
2018-12-18T21:22:49.717Z,3.59
2018-12-18T21:23:54.764Z,3.64
2018-12-18T21:24:56.138Z,3.59
2018-12-18T21:25:57.555Z,3.80
2018-12-18T21:26:59.093Z,3.89
2018-12-18T21:28:00.476Z,3.82
2018-12-18T21:29:01.868Z,3.96
2018-12-18T21:30:03.334Z,3.82
2018-12-18T21:31:04.713Z,3.95
2018-12-18T21:32:06.095Z,3.92
2018-12-18T21:33:07.477Z,3.93
2018-12-18T21:34:11.082Z,3.92
2018-12-18T21:35:15.175Z,3.93
2018-12-18T21:36:22.876Z,3.95
2018-12-18T21:37:33.451Z,3.90
2018-12-18T21:38:37.655Z,3.92
2018-12-18T21:39:42.288Z,4.00
2018-12-18T21:40:45.177Z,3.98
2018-12-18T21:41:47.140Z,3.92
2018-12-18T21:42:48.534Z,3.93
2018-12-18T21:43:54.820Z,3.98
2018-12-18T21:45:02.417Z,3.96
2018-12-18T21:46:12.497Z,3.81
2018-12-18T21:47:22.850Z,3.89
2018-12-18T21:48:33.212Z,3.95
2018-12-18T21:49:43.614Z,3.92
2018-12-18T21:50:46.497Z,3.90
2018-12-18T21:51:49.613Z,3.86
2018-12-18T21:52:52.649Z,3.81
2018-12-18T21:53:55.532Z,3.84
2018-12-18T21:55:00.175Z,3.82
2018-12-18T21:56:04.577Z,3.78
2018-12-18T21:57:06.839Z,3.81
2018-12-18T21:58:08.843Z,3.77
2018-12-18T21:59:12.052Z,3.81
2018-12-18T22:00:13.429Z,3.78
2018-12-18T22:01:16.853Z,3.78
2018-12-18T22:02:18.229Z,3.78
2018-12-18T22:03:19.610Z,3.64
2018-12-18T22:04:22.869Z,3.62
2018-12-18T22:05:24.245Z,3.59
2018-12-18T22:06:25.626Z,3.46
2018-12-18T22:07:28.072Z,3.45
2018-12-18T22:08:36.823Z,3.37
2018-12-18T22:09:36.170Z,3.44
2018-12-18T22:10:40.190Z,3.41
2018-12-18T22:11:44.053Z,3.33
2018-12-18T22:12:48.550Z,3.44
2018-12-18T22:13:52.370Z,3.41
2018-12-18T22:14:56.288Z,3.37
2018-12-18T22:16:00.334Z,3.31
2018-12-18T22:17:04.686Z,3.22
2018-12-18T22:18:06.063Z,3.20
2018-12-18T22:19:11.762Z,3.26
2018-12-18T22:20:16.194Z,3.15
2018-12-18T22:21:17.529Z,3.20
2018-12-18T22:22:18.917Z,3.08
2018-12-18T22:23:20.500Z,3.17
2018-12-18T22:24:21.893Z,3.12
2018-12-18T22:25:25.757Z,3.02
2018-12-18T22:26:27.083Z,3.07
2018-12-18T22:27:28.455Z,3.08
2018-12-18T22:28:29.928Z,3.04
2018-12-18T22:29:31.312Z,3.05
2018-12-18T22:30:32.692Z,3.02
2018-12-18T22:31:34.208Z,3.01
2018-12-18T22:32:35.587Z,2.98
2018-12-18T22:33:36.963Z,2.90
2018-12-18T22:34:38.393Z,2.98
2018-12-18T22:35:39.766Z,2.87
2018-12-18T22:36:41.285Z,2.90
2018-12-18T22:37:42.627Z,2.90
2018-12-18T22:38:44.028Z,2.81
2018-12-18T22:39:45.406Z,2.87
2018-12-18T22:40:46.784Z,2.86
2018-12-18T22:41:48.159Z,2.81
2018-12-18T22:42:49.534Z,2.73
2018-12-18T22:43:50.909Z,2.71
2018-12-18T22:44:52.285Z,2.69
2018-12-18T22:45:53.658Z,2.69
2018-12-18T22:46:55.044Z,2.84
2018-12-18T22:47:56.437Z,2.74
2018-12-18T22:48:58.036Z,2.68
2018-12-18T22:50:01.074Z,2.62
2018-12-18T22:51:05.832Z,2.79
2018-12-18T22:52:12.969Z,2.68
2018-12-18T22:53:14.455Z,2.74
2018-12-18T22:54:15.842Z,2.76
2018-12-18T22:55:19.626Z,2.62
2018-12-18T22:56:21.010Z,2.59
2018-12-18T22:57:22.389Z,2.59
2018-12-18T22:58:23.765Z,2.73
